WetterOnline ( http://www.wetteronline.ch )

Wetter aktuell Großer Arber

Aktuelles Wetter: Großer Arber (1446m)

6-stündlich | Neueste Meldungen
Ortszeit Temperatur Wetter
Mo, 21.01. 19:00 -10.8° C wolkenlos
Mo, 21.01. 13:00 -8.1° C wolkenlos
Mo, 21.01. 7:00 -12.2° C Nebel
Mo, 21.01. 1:00 -12.0° C Nebel
So, 20.01. 19:00 -9.3° C wolkenlos
So, 20.01. 13:00 -6.3° C leicht bewölkt
So, 20.01. 7:00 -9.4° C wolkenlos
So, 20.01. 1:00 -8.1° C wolkenlos
Ortszeit Temperatur Wetter
Mo, 21.01. 20:30 -10.7° C bewölkt
Mo, 21.01. 20:20 -10.7° C bewölkt
Mo, 21.01. 20:10 -10.3° C wolkig
Mo, 21.01. 20:00 -10.3° C leicht bewölkt
Mo, 21.01. 19:50 -10.3° C leicht bewölkt
Mo, 21.01. 19:40 -10.3° C wolkig
Mo, 21.01. 19:30 -9.9° C leicht bewölkt
Mo, 21.01. 19:00 -10.8° C wolkenlos
Mo, 21.01. 18:30 -10.7° C wolkenlos
Mo, 21.01. 18:00 -10.3° C wolkenlos
Mo, 21.01. 17:30 -10.3° C wolkenlos
Ortszeit Relative Feuchte Sichtweite
Mo, 21.01. 19:00 93% 15 km
Mo, 21.01. 13:00 76% 55 km
Mo, 21.01. 7:00 93% <100 m
Mo, 21.01. 1:00 94% <100 m
So, 20.01. 19:00 77% >70 km
So, 20.01. 13:00 75% 50 km
So, 20.01. 7:00 73% >70 km
So, 20.01. 1:00 65% 65 km
Ortszeit Relative Feuchte Sichtweite
Mo, 21.01. 20:30 93% 4.5 km
Mo, 21.01. 20:20 93% -
Mo, 21.01. 20:10 92% -
Mo, 21.01. 20:00 92% 13 km
Mo, 21.01. 19:50 92% -
Mo, 21.01. 19:40 92% -
Mo, 21.01. 19:30 93% 12 km
Mo, 21.01. 19:00 93% 15 km
Mo, 21.01. 18:30 93% 15 km
Mo, 21.01. 18:00 92% 22 km
Mo, 21.01. 17:30 95% 6 km
Ortszeit Niederschlagsmenge Niederschlagsart
Mo, 21.01. 19:00 0.0 l/m2 in 12 Std. -
Mo, 21.01. 13:00 0.0 l/m2 in 6 Std. -
Mo, 21.01. 7:00 0.0 l/m2 in 12 Std. -
Mo, 21.01. 1:00 0.0 l/m2 in 6 Std. -
So, 20.01. 19:00 0.1 l/m2 in 12 Std. Niederschlag
So, 20.01. 13:00 0.0 l/m2 in 6 Std. -
So, 20.01. 7:00 0.0 l/m2 in 12 Std. -
So, 20.01. 1:00 0.0 l/m2 in 6 Std. -
Ortszeit Niederschlagsmenge Niederschlagsart
Mo, 21.01. 20:30 0.0 l/m2 in 1 Std. -
Mo, 21.01. 20:20 keine Meldung -
Mo, 21.01. 20:10 keine Meldung -
Mo, 21.01. 20:00 0.0 l/m2 in 1 Std. -
Mo, 21.01. 19:50 keine Meldung -
Mo, 21.01. 19:40 keine Meldung -
Mo, 21.01. 19:30 0.0 l/m2 in 1 Std. -
Mo, 21.01. 19:00 0.0 l/m2 in 1 Std. -
Mo, 21.01. 18:30 0.0 l/m2 in 1 Std. -
Mo, 21.01. 18:00 0.0 l/m2 in 1 Std. -
Mo, 21.01. 17:30 0.0 l/m2 in 1 Std. -
Ortszeit Stärke Spitze Richtung
km/h Bft. km/h Grad Sektor
Mo, 21.01. 19:00 14 3 18 180° S
Mo, 21.01. 13:00 11 2 40 140° SO
Mo, 21.01. 7:00 11 2 14 110° O
Mo, 21.01. 1:00 7 2 18 100° O
So, 20.01. 19:00 4 1 11 340° N
So, 20.01. 13:00 4 1 11 160° S
So, 20.01. 7:00 11 2 15 190° S
So, 20.01. 1:00 9 2 39 170° S
Ortszeit Stärke Spitze Richtung
km/h Bft. km/h Grad Sektor
Mo, 21.01. 20:30 15 3 20 220° SW
Mo, 21.01. 20:20 15 3 - 220° SW
Mo, 21.01. 20:10 17 3 - 210° SW
Mo, 21.01. 20:00 14 3 22 210° SW
Mo, 21.01. 19:50 14 3 - 210° SW
Mo, 21.01. 19:40 15 3 - 200° S
Mo, 21.01. 19:30 18 3 22 190° S
Mo, 21.01. 19:00 14 3 18 180° S
Mo, 21.01. 18:30 13 3 13 180° S
Mo, 21.01. 18:00 11 2 19 170° S
Mo, 21.01. 17:30 11 2 14 160° S
Ortszeit Untergrenze Bedeckung Gattung
total tief tief mittel hoch
Mo, 21.01. 19:00 - 0/8 0/8 - - -
Mo, 21.01. 13:00 - 0/8 0/8 - - -
Mo, 21.01. 7:00 <30 m 3/8 3/8 - - -
Mo, 21.01. 1:00 <30 m 6/8 6/8 - - -
So, 20.01. 19:00 - 0/8 0/8 - - -
So, 20.01. 13:00 60 m 3/8 3/8 - - -
So, 20.01. 7:00 - 0/8 0/8 - - -
So, 20.01. 1:00 - 0/8 0/8 - - -
Ortszeit Bedeckungsgrad in Achtel und Wolkenuntergrenze
Mo, 21.01. 20:30 7(<30m)
Mo, 21.01. 20:20 7(<30m)
Mo, 21.01. 20:10 5(<30m)
Mo, 21.01. 20:00 3(<30m)
Mo, 21.01. 19:50 3(<30m)
Mo, 21.01. 19:40 6(<30m)
Mo, 21.01. 19:30 2(<30m)
Mo, 21.01. 19:00 keine Wolken
Mo, 21.01. 18:30 keine Wolken
Mo, 21.01. 18:00 keine Wolken
Mo, 21.01. 17:30 keine Wolken
Ortszeit Stationsdruck (hPa) Tendenz (hPa in 3 Std.)
Mo, 21.01. 19:00 850 - 0,4
Mo, 21.01. 13:00 851 - 0,2
Mo, 21.01. 7:00 850 + 0,1
Mo, 21.01. 1:00 850 + 0,7
So, 20.01. 19:00 848 + 1,0
So, 20.01. 13:00 847 + 0,5
So, 20.01. 7:00 845 - 0,4
So, 20.01. 1:00 846 - 0,4
Ortszeit Stationsdruck (hPa) Tendenz (hPa in 3 Std.)
Mo, 21.01. 20:30 850 - 0,5
Mo, 21.01. 20:20 850 keine Meldung
Mo, 21.01. 20:10 849 keine Meldung
Mo, 21.01. 20:00 850 - 0,6
Mo, 21.01. 19:50 850 keine Meldung
Mo, 21.01. 19:40 850 keine Meldung
Mo, 21.01. 19:30 850 - 0,5
Mo, 21.01. 19:00 850 - 0,4
Mo, 21.01. 18:30 850 - 0,4
Mo, 21.01. 18:00 850 - 0,5
Mo, 21.01. 17:30 850 - 0,5
Ortszeit Schneehöhe (cm)
Mo, 21.01. 19:00 228
Mo, 21.01. 13:00 229
Mo, 21.01. 7:00 229
Mo, 21.01. 1:00 229
So, 20.01. 19:00 229
So, 20.01. 13:00 230
So, 20.01. 7:00 230
So, 20.01. 1:00 231
Ortszeit Schneehöhe (cm)
Mo, 21.01. 20:30 228
Mo, 21.01. 20:20 228
Mo, 21.01. 20:10 228
Mo, 21.01. 20:00 228
Mo, 21.01. 19:50 228
Mo, 21.01. 19:40 228
Mo, 21.01. 19:30 228
Mo, 21.01. 19:00 228
Mo, 21.01. 18:30 228
Mo, 21.01. 18:00 228
Mo, 21.01. 17:30 228
Link zu dieser Seite / Seite empfehlen

Das Wetter in ...